Cuneo / Levaldigi, Italy
Alba: 7:59 AM UTC1
Tramonto: 4:50 PM UTC1
 Lat: 44.53N, Lon: 7.62E
ICAO Used: LIMZ
Condizioni Meteo Attuali Aggiornate: 18.12.2018 alle 14:50 UTC
Sereno
Sereno
Sereno
Temp: 3°C
Umidita': 87%
Direz/Vel. Vento: variabile 2 / KT raffiche
Pressione: 1026 hPa
Punto di rugiada: 1°C
Temperatura percepita: 3°C
Visibilitą: 8000 m. (buona)
Temperatura percepita in
presenza di vento (Wind Chill)
:
N/D
T. max (ultime 24 ore): 3°C
T. min (ultime 24 ore): -5°C


METAR ORIGINALE
LIMZ 181450Z VRB02KT 8000 NSC 03/01 Q1026



[ Indietro ]


Elaborazione dati by Datameteo.com - Lrc srl Copyright ©, All rights reserved.